Time;durP1;ratioP1;P1;durP2;ratioP2;P2;SDS_P1;SDS_P2;PMS_P1;PMS_P2;Temp;Humidity;BMP_temperature;BMP_pressure;BME280_temperature;BME280_humidity;BME280_pressure;Samples;Min_cycle;Max_cycle;Signal;HPM_P1;HPM_P2
2020/12/15 00:00:36;;;;;;;37.58;16.70;;;-2.50;88.80;;;;;;5054570;28;20081;-84
2020/12/15 00:03:03;;;;;;;36.67;18.35;;;-2.60;89.00;;;;;;5063767;28;20032;-86
2020/12/15 00:05:29;;;;;;;27.30;14.77;;;-2.60;89.20;;;;;;5050996;28;20025;-83
2020/12/15 00:07:55;;;;;;;27.58;17.50;;;-2.60;89.50;;;;;;5047814;28;20025;-82
2020/12/15 00:10:21;;;;;;;29.05;16.55;;;-2.60;89.70;;;;;;5051102;28;20066;-84
2020/12/15 00:12:47;;;;;;;33.92;17.73;;;-2.60;89.60;;;;;;5052299;28;20029;-84
2020/12/15 00:15:13;;;;;;;33.65;18.48;;;-2.60;89.40;;;;;;5038693;28;20582;-84
2020/12/15 00:17:39;;;;;;;27.45;15.25;;;-2.50;89.20;;;;;;5051843;28;20068;-85
2020/12/15 00:20:08;;;;;;;26.35;14.10;;;-2.50;89.00;;;;;;5051090;28;20029;-86
2020/12/15 00:22:37;;;;;;;31.20;17.05;;;-2.50;89.00;;;;;;5047889;28;20034;-84
2020/12/15 00:25:04;;;;;;;35.78;17.30;;;-2.50;88.90;;;;;;5080463;28;20478;-86
2020/12/15 00:27:30;;;;;;;38.55;21.60;;;-2.50;88.80;;;;;;5039731;28;20146;-86
2020/12/15 00:29:56;;;;;;;29.65;17.30;;;-2.40;88.70;;;;;;5038419;28;20037;-86
2020/12/15 00:32:22;;;;;;;36.78;17.05;;;-2.40;88.50;;;;;;5040910;28;20017;-85
2020/12/15 00:34:48;;;;;;;34.20;16.65;;;-2.50;88.50;;;;;;5049605;28;20017;-84
2020/12/15 00:37:14;;;;;;;36.38;16.75;;;-2.50;88.50;;;;;;5046925;28;20495;-85
2020/12/15 00:39:40;;;;;;;30.40;16.20;;;-2.50;88.80;;;;;;5047709;28;20028;-84
2020/12/15 00:42:06;;;;;;;33.20;17.40;;;-2.50;89.00;;;;;;5049593;28;20025;-86
2020/12/15 00:44:33;;;;;;;33.00;15.23;;;-2.50;89.10;;;;;;5045840;28;20510;-85
2020/12/15 00:46:59;;;;;;;30.23;17.10;;;-2.50;89.20;;;;;;5044861;28;20032;-86
2020/12/15 00:49:25;;;;;;;33.85;16.17;;;-2.50;88.90;;;;;;5056711;28;20083;-86
2020/12/15 00:51:51;;;;;;;29.60;17.02;;;-2.50;88.80;;;;;;5053004;28;20442;-86
2020/12/15 00:54:17;;;;;;;30.70;16.73;;;-2.50;88.70;;;;;;5054285;28;20025;-85
2020/12/15 00:56:43;;;;;;;40.60;19.63;;;-2.50;88.50;;;;;;5048418;28;20086;-85
2020/12/15 00:59:09;;;;;;;24.90;14.82;;;-2.40;88.30;;;;;;5043040;28;20017;-84
2020/12/15 01:01:35;;;;;;;30.40;16.35;;;-2.40;88.40;;;;;;5056738;28;20481;-85
2020/12/15 01:04:01;;;;;;;28.83;16.33;;;-2.40;88.50;;;;;;5043566;28;20051;-84
2020/12/15 01:06:27;;;;;;;35.30;18.40;;;-2.40;88.50;;;;;;5050453;28;20155;-82
2020/12/15 01:08:53;;;;;;;33.90;15.77;;;-2.40;88.10;;;;;;5039832;28;20102;-83
2020/12/15 01:11:20;;;;;;;32.85;16.30;;;-2.40;88.00;;;;;;5036580;28;20089;-85
2020/12/15 01:13:46;;;;;;;31.77;17.17;;;-2.30;88.10;;;;;;5048710;28;20025;-86
2020/12/15 01:16:12;;;;;;;29.92;17.95;;;-2.30;87.80;;;;;;5055265;28;20085;-83
2020/12/15 01:18:38;;;;;;;31.88;17.52;;;-2.30;87.80;;;;;;5061205;28;20037;-84
2020/12/15 01:21:04;;;;;;;28.75;15.20;;;-2.30;87.60;;;;;;5050261;28;20024;-84
2020/12/15 01:23:30;;;;;;;36.03;17.02;;;-2.30;87.60;;;;;;5058238;28;20100;-84
2020/12/15 01:25:56;;;;;;;39.47;18.88;;;-2.40;87.40;;;;;;5070549;28;20032;-85
2020/12/15 01:28:22;;;;;;;25.42;15.65;;;-2.40;87.40;;;;;;5043087;28;20028;-84
2020/12/15 01:30:48;;;;;;;32.95;15.73;;;-2.40;87.50;;;;;;5041844;28;20160;-85
2020/12/15 01:33:14;;;;;;;33.10;17.45;;;-2.40;87.80;;;;;;5049366;28;20018;-83
2020/12/15 01:35:40;;;;;;;30.77;15.18;;;-2.40;88.10;;;;;;5039016;28;20021;-85
2020/12/15 01:38:06;;;;;;;29.88;16.40;;;-2.40;88.30;;;;;;5058638;28;20018;-83
2020/12/15 01:40:32;;;;;;;33.40;16.48;;;-2.40;88.10;;;;;;5040113;28;20037;-85
2020/12/15 01:42:57;;;;;;;31.75;16.50;;;-2.40;88.10;;;;;;5042854;28;20060;-83
2020/12/15 01:45:24;;;;;;;35.85;17.15;;;-2.40;88.30;;;;;;5042172;28;20068;-83
2020/12/15 01:47:50;;;;;;;33.90;17.03;;;-2.40;88.50;;;;;;5045675;28;20018;-83
2020/12/15 01:50:20;;;;;;;28.65;14.80;;;-2.40;88.50;;;;;;5041454;28;20320;-84
2020/12/15 01:52:47;;;;;;;31.95;16.38;;;-2.40;88.50;;;;;;5039324;28;20017;-84
2020/12/15 01:55:17;;;;;;;33.35;16.27;;;-2.40;88.40;;;;;;5045940;28;20017;-84
2020/12/15 01:57:45;;;;;;;34.80;16.67;;;-2.40;88.50;;;;;;5045126;28;20063;-85
2020/12/15 02:00:11;;;;;;;32.75;16.85;;;-2.40;88.50;;;;;;5036800;28;20036;-83
2020/12/15 02:02:40;;;;;;;33.13;16.33;;;-2.40;88.90;;;;;;5038213;28;20039;-82
2020/12/15 02:05:06;;;;;;;32.00;17.15;;;-2.40;89.00;;;;;;5039257;28;20425;-83
2020/12/15 02:07:32;;;;;;;26.30;15.52;;;-2.50;88.90;;;;;;5036770;28;20021;-84
2020/12/15 02:09:58;;;;;;;41.45;20.30;;;-2.50;88.50;;;;;;5038021;28;20022;-83
2020/12/15 02:12:24;;;;;;;29.98;16.23;;;-2.40;88.60;;;;;;5038257;28;20025;-85
2020/12/15 02:14:50;;;;;;;33.38;17.25;;;-2.40;88.60;;;;;;5046250;28;20540;-84
2020/12/15 02:17:15;;;;;;;30.17;16.48;;;-2.40;88.50;;;;;;5047414;28;20033;-84
2020/12/15 02:19:41;;;;;;;33.53;17.63;;;-2.40;88.30;;;;;;5045927;28;20021;-85
2020/12/15 02:22:07;;;;;;;25.25;15.07;;;-2.30;88.20;;;;;;5044162;28;20025;-86
2020/12/15 02:24:33;;;;;;;34.97;19.20;;;-2.30;88.00;;;;;;5039405;28;20368;-85
2020/12/15 02:26:59;;;;;;;37.08;18.75;;;-2.40;88.20;;;;;;5043772;28;20029;-84
2020/12/15 02:29:25;;;;;;;30.70;14.48;;;-2.40;88.30;;;;;;5041494;28;20585;-84
2020/12/15 02:31:51;;;;;;;34.28;17.45;;;-2.40;88.30;;;;;;5060058;28;20029;-84
2020/12/15 02:34:17;;;;;;;31.42;16.98;;;-2.40;88.20;;;;;;5062935;28;20024;-85
2020/12/15 02:36:43;;;;;;;41.03;17.48;;;-2.40;88.30;;;;;;5049273;28;20450;-84
2020/12/15 02:39:17;;;;;;;27.50;15.65;;;-2.40;88.30;;;;;;5046980;28;20021;-85
2020/12/15 02:41:43;;;;;;;32.33;17.52;;;-2.40;88.10;;;;;;5035567;28;20051;-84
2020/12/15 02:44:09;;;;;;;24.95;14.70;;;-2.40;88.00;;;;;;5048598;28;20049;-83
2020/12/15 02:46:36;;;;;;;28.58;15.43;;;-2.40;88.10;;;;;;5044219;28;20107;-84
2020/12/15 02:49:02;;;;;;;33.05;16.67;;;-2.40;88.30;;;;;;5051341;28;20043;-84
2020/12/15 02:51:28;;;;;;;27.75;15.93;;;-2.40;88.20;;;;;;5074067;28;20498;-86
2020/12/15 02:53:54;;;;;;;36.47;16.83;;;-2.40;87.90;;;;;;5053195;28;20021;-84
2020/12/15 02:56:24;;;;;;;32.90;15.35;;;-2.40;88.20;;;;;;5052159;28;20029;-83
2020/12/15 02:58:51;;;;;;;36.42;15.00;;;-2.40;88.30;;;;;;5037245;28;20462;-84
2020/12/15 03:01:18;;;;;;;29.27;17.42;;;-2.40;88.30;;;;;;5035978;28;20029;-83
2020/12/15 03:03:44;;;;;;;32.67;15.65;;;-2.40;88.20;;;;;;5050787;28;20164;-84
2020/12/15 03:06:11;;;;;;;28.05;14.57;;;-2.40;88.00;;;;;;5035870;28;20026;-84
2020/12/15 03:08:37;;;;;;;29.83;15.30;;;-2.40;88.00;;;;;;5050510;28;20017;-84
2020/12/15 03:11:05;;;;;;;36.22;16.80;;;-2.40;87.80;;;;;;5043515;28;20033;-84
2020/12/15 03:13:31;;;;;;;29.40;16.35;;;-2.40;87.80;;;;;;5057725;28;20089;-82
2020/12/15 03:15:58;;;;;;;31.58;16.10;;;-2.40;87.40;;;;;;5071211;28;20036;-83
2020/12/15 03:18:24;;;;;;;29.85;16.08;;;-2.30;87.50;;;;;;5067233;28;20021;-84
2020/12/15 03:20:50;;;;;;;26.73;15.98;;;-2.30;87.60;;;;;;5048850;28;20021;-84
2020/12/15 03:23:20;;;;;;;31.58;15.80;;;-2.30;87.40;;;;;;5054637;28;20031;-82
2020/12/15 03:25:46;;;;;;;26.23;14.98;;;-2.30;87.30;;;;;;5045693;28;20051;-83
2020/12/15 03:28:12;;;;;;;28.50;14.82;;;-2.30;87.40;;;;;;5049519;28;20025;-86
2020/12/15 03:30:38;;;;;;;31.02;15.50;;;-2.40;87.30;;;;;;5051776;28;20025;-84
2020/12/15 03:33:04;;;;;;;33.22;15.95;;;-2.40;87.10;;;;;;5037901;28;20037;-85
2020/12/15 03:35:32;;;;;;;26.80;14.90;;;-2.40;87.40;;;;;;5041383;28;20431;-83
2020/12/15 03:37:59;;;;;;;28.77;15.32;;;-2.40;87.70;;;;;;5048460;28;20429;-85
2020/12/15 03:40:25;;;;;;;26.25;14.38;;;-2.40;88.30;;;;;;5046611;28;20027;-83
2020/12/15 03:42:51;;;;;;;32.75;14.95;;;-2.50;88.90;;;;;;5042811;28;20022;-84
2020/12/15 03:45:17;;;;;;;33.30;15.57;;;-2.50;88.90;;;;;;5057258;28;20017;-84
2020/12/15 03:47:43;;;;;;;33.55;16.50;;;-2.50;88.70;;;;;;5041620;28;20029;-84
2020/12/15 03:50:09;;;;;;;33.00;15.13;;;-2.40;88.50;;;;;;5047269;28;20029;-85
2020/12/15 03:52:39;;;;;;;36.35;17.80;;;-2.40;88.40;;;;;;5049761;28;20025;-82
2020/12/15 03:55:05;;;;;;;34.20;15.23;;;-2.40;88.20;;;;;;5050515;28;20048;-82
2020/12/15 03:57:32;;;;;;;33.43;17.20;;;-2.40;88.20;;;;;;5045685;28;20025;-84
2020/12/15 03:59:57;;;;;;;31.50;16.15;;;-2.40;88.00;;;;;;5033767;28;20029;-83
2020/12/15 04:02:23;;;;;;;25.05;15.93;;;-2.40;87.80;;;;;;5033565;28;20038;-83
2020/12/15 04:04:51;;;;;;;29.65;15.18;;;-2.30;87.80;;;;;;5036816;28;20426;-83
2020/12/15 04:07:17;;;;;;;23.60;14.40;;;-2.40;87.60;;;;;;5040641;28;20104;-83
2020/12/15 04:09:44;;;;;;;32.53;16.02;;;-2.40;87.90;;;;;;5039593;28;20394;-82
2020/12/15 04:12:11;;;;;;;28.48;15.38;;;-2.40;87.90;;;;;;5042815;28;20427;-83
2020/12/15 04:14:40;;;;;;;34.55;16.95;;;-2.40;87.50;;;;;;5043781;28;20017;-84
2020/12/15 04:17:08;;;;;;;28.30;14.50;;;-2.40;87.30;;;;;;5041585;28;20126;-83
2020/12/15 04:19:36;;;;;;;25.35;14.55;;;-2.40;87.40;;;;;;5041296;28;20022;-84
2020/12/15 04:22:02;;;;;;;31.85;15.50;;;-2.30;87.60;;;;;;5054228;28;20036;-85
2020/12/15 04:24:28;;;;;;;28.45;13.80;;;-2.30;87.50;;;;;;5037071;28;20025;-86
2020/12/15 04:26:54;;;;;;;27.25;15.02;;;-2.30;87.90;;;;;;5045450;28;20017;-83
2020/12/15 04:29:19;;;;;;;27.55;14.80;;;-2.40;87.60;;;;;;5048014;28;20105;-82
2020/12/15 04:31:45;;;;;;;28.92;15.27;;;-2.40;87.50;;;;;;5052995;28;20039;-84
2020/12/15 04:34:11;;;;;;;28.00;16.20;;;-2.40;87.80;;;;;;5052980;28;20056;-85
2020/12/15 04:36:37;;;;;;;31.88;15.05;;;-2.40;87.80;;;;;;5046294;28;20032;-84
2020/12/15 04:39:04;;;;;;;29.17;15.20;;;-2.40;87.50;;;;;;5050701;28;20056;-82
2020/12/15 04:41:31;;;;;;;28.27;15.77;;;-2.40;87.80;;;;;;5044911;28;20017;-83
2020/12/15 04:43:59;;;;;;;29.20;14.55;;;-2.40;88.20;;;;;;5052845;28;20021;-81
2020/12/15 04:46:27;;;;;;;36.90;17.35;;;-2.40;88.20;;;;;;5053259;28;20048;-83
2020/12/15 04:49:20;;;;;;;29.83;14.82;;;-2.40;88.00;;;;;;5058839;28;20025;-81
2020/12/15 04:52:03;;;;;;;28.38;15.23;;;-2.40;88.20;;;;;;5055588;28;20502;-82
2020/12/15 04:54:34;;;;;;;31.75;15.85;;;-2.40;88.00;;;;;;5053028;28;20364;-83
2020/12/15 04:57:02;;;;;;;25.77;14.07;;;-2.40;87.60;;;;;;5051476;28;20025;-82
2020/12/15 04:59:34;;;;;;;32.58;16.98;;;-2.40;87.80;;;;;;5036701;28;20018;-83
2020/12/15 05:02:04;;;;;;;29.77;16.15;;;-2.40;87.80;;;;;;5038062;28;20060;-83
2020/12/15 05:04:50;;;;;;;34.92;19.10;;;-2.30;88.10;;;;;;5037986;28;20057;-83
2020/12/15 05:07:16;;;;;;;36.70;14.68;;;-2.40;88.30;;;;;;5038248;28;20111;-83
2020/12/15 05:09:41;;;;;;;29.65;17.85;;;-2.40;88.70;;;;;;5066053;28;20028;-84
2020/12/15 05:12:07;;;;;;;31.95;16.08;;;-2.40;88.70;;;;;;5051020;28;20034;-83
2020/12/15 05:14:33;;;;;;;26.42;16.30;;;-2.40;88.50;;;;;;5064800;28;20021;-82
2020/12/15 05:16:59;;;;;;;27.85;17.88;;;-2.30;88.60;;;;;;5075359;28;20119;-84
2020/12/15 05:19:25;;;;;;;33.67;15.73;;;-2.30;88.60;;;;;;5044533;28;20037;-85
2020/12/15 05:21:57;;;;;;;30.40;17.38;;;-2.30;88.90;;;;;;5049736;28;20021;-83
2020/12/15 05:24:30;;;;;;;30.00;17.15;;;-2.30;88.80;;;;;;5050063;28;20026;-82
2020/12/15 05:27:01;;;;;;;33.70;17.38;;;-2.30;88.80;;;;;;5045778;28;20013;-83
2020/12/15 05:29:27;;;;;;;29.15;15.52;;;-2.30;88.30;;;;;;5042916;28;20018;-86
2020/12/15 05:31:58;;;;;;;33.63;16.70;;;-2.30;88.10;;;;;;5053396;28;20025;-84
2020/12/15 05:34:26;;;;;;;27.63;15.02;;;-2.30;88.70;;;;;;5052810;28;20116;-84
2020/12/15 05:37:01;;;;;;;29.58;15.25;;;-2.30;88.50;;;;;;5046193;28;20023;-85
2020/12/15 05:39:28;;;;;;;30.40;16.77;;;-2.20;88.70;;;;;;5045831;28;20447;-84
2020/12/15 05:42:01;;;;;;;35.75;17.83;;;-2.30;88.50;;;;;;5035539;28;20201;-83
2020/12/15 05:44:28;;;;;;;28.42;15.75;;;-2.20;88.40;;;;;;5046701;28;20497;-84
2020/12/15 05:47:04;;;;;;;26.73;16.65;;;-2.20;88.30;;;;;;5048371;28;20017;-85
2020/12/15 05:49:31;;;;;;;29.58;16.13;;;-2.20;88.20;;;;;;5043439;28;20033;-86
2020/12/15 05:51:59;;;;;;;31.25;16.25;;;-2.20;88.10;;;;;;5045174;28;20022;-84
2020/12/15 05:54:25;;;;;;;;;;;-2.10;88.10;;;;;;5046235;28;20032;-84
2020/12/15 05:57:01;;;;;;;33.88;16.52;;;-2.10;88.20;;;;;;5037307;28;19913;-85
2020/12/15 05:59:27;;;;;;;25.50;16.13;;;-2.10;88.30;;;;;;5036746;28;20017;-84
2020/12/15 06:02:02;;;;;;;34.63;17.08;;;-2.10;88.20;;;;;;5054069;28;20080;-83
2020/12/15 06:04:27;;;;;;;33.20;17.65;;;-2.10;87.90;;;;;;5057633;28;20037;-84
2020/12/15 06:06:54;;;;;;;36.40;19.05;;;-2.10;88.00;;;;;;5042107;28;20536;-85
2020/12/15 06:09:20;;;;;;;37.65;18.35;;;-2.10;88.20;;;;;;5047790;28;20049;-85
2020/12/15 06:11:47;;;;;;;32.97;16.90;;;-2.10;88.40;;;;;;5038658;28;20513;-85
2020/12/15 06:14:14;;;;;;;39.42;20.10;;;-2.10;88.50;;;;;;5050500;28;20108;-82
2020/12/15 06:16:41;;;;;;;39.42;20.00;;;-2.10;88.60;;;;;;5042466;28;20063;-85
2020/12/15 06:19:12;;;;;;;35.28;19.40;;;-2.10;88.30;;;;;;5052233;28;20531;-84
2020/12/15 06:21:54;;;;;;;34.10;17.58;;;-2.00;88.20;;;;;;5053017;28;20033;-84
2020/12/15 06:24:28;;;;;;;39.75;18.67;;;-2.10;88.10;;;;;;5043147;28;20017;-85
2020/12/15 06:27:01;;;;;;;35.83;19.85;;;-2.10;88.00;;;;;;5060345;28;20016;-85
2020/12/15 06:29:35;;;;;;;41.10;21.42;;;-2.10;88.50;;;;;;5045504;28;20333;-84
2020/12/15 06:32:03;;;;;;;37.13;18.70;;;-2.10;88.50;;;;;;5049301;28;20037;-84
2020/12/15 06:34:32;;;;;;;32.88;18.75;;;-2.10;88.10;;;;;;5042119;28;20025;-86
2020/12/15 06:36:59;;;;;;;37.95;19.55;;;-2.10;87.90;;;;;;5050647;28;20111;-85
2020/12/15 06:39:27;;;;;;;37.17;18.60;;;-2.10;87.70;;;;;;5044162;28;20115;-84
2020/12/15 06:42:07;;;;;;;33.00;18.88;;;-2.10;87.50;;;;;;5045224;28;20042;-86
2020/12/15 06:44:34;;;;;;;33.60;18.67;;;-2.10;87.10;;;;;;5051967;28;20020;-87
2020/12/15 06:47:02;;;;;;;33.88;17.95;;;-2.00;87.10;;;;;;5052115;28;20415;-83
2020/12/15 06:49:30;;;;;;;30.88;18.20;;;-2.00;86.90;;;;;;5042976;28;20386;-81
2020/12/15 06:51:57;;;;;;;34.88;17.98;;;-2.00;87.10;;;;;;5041062;28;20022;-82
2020/12/15 06:54:30;;;;;;;36.30;19.95;;;-1.90;87.10;;;;;;5033905;28;20100;-82
2020/12/15 06:57:06;;;;;;;36.03;19.73;;;-1.90;87.10;;;;;;5050838;28;20025;-81
2020/12/15 06:59:38;;;;;;;35.17;18.13;;;-1.90;87.20;;;;;;5053261;28;20013;-83
2020/12/15 07:02:16;;;;;;;31.40;18.00;;;-1.90;87.00;;;;;;5051494;28;20021;-83
2020/12/15 07:04:44;;;;;;;31.90;17.58;;;-1.90;86.90;;;;;;5047785;28;20033;-89
2020/12/15 07:07:10;;;;;;;29.08;18.13;;;-1.90;86.60;;;;;;5050997;28;20025;-85
2020/12/15 07:09:36;;;;;;;34.00;17.52;;;-1.90;86.80;;;;;;5043485;28;20429;-82
2020/12/15 07:12:09;;;;;;;31.48;18.75;;;-1.80;86.60;;;;;;5047326;28;20028;-81
2020/12/15 07:14:35;;;;;;;36.13;18.63;;;-1.80;86.50;;;;;;5059756;28;20029;-81
2020/12/15 07:17:02;;;;;;;32.15;19.05;;;-1.70;86.40;;;;;;5057434;28;20105;-82
2020/12/15 07:19:28;;;;;;;38.33;17.33;;;-1.70;86.10;;;;;;5040204;28;20018;-81
2020/12/15 07:21:54;;;;;;;32.50;16.95;;;-1.60;86.10;;;;;;5039316;28;20398;-82
2020/12/15 07:24:20;;;;;;;32.42;18.80;;;-1.60;86.40;;;;;;5044564;28;20013;-81
2020/12/15 07:26:47;;;;;;;33.65;18.60;;;-1.60;86.10;;;;;;5050742;28;20091;-82
2020/12/15 07:29:17;;;;;;;34.77;18.33;;;-1.60;85.90;;;;;;5044083;28;20062;-83
2020/12/15 07:31:44;;;;;;;33.63;17.27;;;-1.60;85.90;;;;;;5049855;28;20305;-82
2020/12/15 07:34:15;;;;;;;30.75;17.80;;;-1.60;86.00;;;;;;5050507;28;20104;-85
2020/12/15 07:36:43;;;;;;;33.45;17.30;;;-1.60;86.00;;;;;;5049121;28;20025;-88
2020/12/15 07:39:10;;;;;;;30.85;17.70;;;-1.60;86.20;;;;;;5041891;28;20096;-88
2020/12/15 07:41:38;;;;;;;35.72;17.60;;;-1.50;86.10;;;;;;5049368;28;20024;-89
2020/12/15 07:44:11;;;;;;;40.55;18.75;;;-1.60;86.50;;;;;;5050830;28;20032;-84
2020/12/15 07:46:43;;;;;;;39.00;20.00;;;-1.60;86.60;;;;;;5047534;28;20048;-83
2020/12/15 07:49:09;;;;;;;35.80;18.70;;;-1.60;86.20;;;;;;5055439;28;20455;-81
2020/12/15 07:51:38;;;;;;;33.75;17.17;;;-1.60;86.50;;;;;;5035076;28;20063;-82
2020/12/15 07:54:05;;;;;;;34.35;19.95;;;-1.60;86.60;;;;;;5037512;28;20479;-85
2020/12/15 07:56:31;;;;;;;32.45;19.73;;;-1.60;86.20;;;;;;5036972;28;20433;-83
2020/12/15 07:58:58;;;;;;;30.27;17.77;;;-1.60;86.70;;;;;;5040995;28;20033;-83
2020/12/15 08:01:25;;;;;;;;;;;-1.60;86.60;;;;;;5047112;28;20032;-83
2020/12/15 08:04:03;;;;;;;31.97;18.00;;;-1.60;87.20;;;;;;5041998;28;20000;-83
2020/12/15 08:06:49;;;;;;;37.78;18.83;;;-1.60;87.50;;;;;;5033274;28;20277;-82
2020/12/15 08:09:16;;;;;;;34.53;19.75;;;-1.60;87.30;;;;;;5033850;28;20018;-85
2020/12/15 08:11:49;;;;;;;38.20;19.05;;;-1.60;87.00;;;;;;5036937;28;20056;-83
2020/12/15 08:14:16;;;;;;;36.78;20.08;;;-1.60;86.60;;;;;;5054656;28;20127;-84
2020/12/15 08:16:43;;;;;;;36.40;19.80;;;-1.60;86.40;;;;;;5065184;28;20063;-84
2020/12/15 08:19:10;;;;;;;35.17;20.75;;;-1.60;86.00;;;;;;5039295;28;20040;-82
2020/12/15 08:21:46;;;;;;;35.83;20.30;;;-1.50;85.70;;;;;;5040560;28;20014;-85
2020/12/15 08:24:15;;;;;;;39.30;19.02;;;-1.50;85.60;;;;;;5034485;28;20104;-84
2020/12/15 08:26:42;;;;;;;40.55;21.77;;;-1.40;85.60;;;;;;5044255;28;20087;-83
2020/12/15 08:29:11;;;;;;;39.38;21.13;;;-1.50;86.10;;;;;;5037443;28;20055;-83
2020/12/15 08:31:41;;;;;;;34.65;19.75;;;-1.50;86.20;;;;;;5038614;28;20044;-84
2020/12/15 08:34:21;;;;;;;36.42;18.20;;;-1.50;86.40;;;;;;5044485;28;20112;-84
2020/12/15 08:36:50;;;;;;;34.92;19.27;;;-1.50;86.60;;;;;;5032529;28;20439;-83
2020/12/15 08:39:22;;;;;;;35.28;19.52;;;-1.50;86.40;;;;;;5033063;28;20018;-82
2020/12/15 08:41:54;;;;;;;33.92;18.08;;;-1.50;86.10;;;;;;5043529;28;20063;-84
2020/12/15 08:44:22;;;;;;;36.38;18.48;;;-1.50;85.10;;;;;;5033530;28;20390;-81
2020/12/15 08:46:55;;;;;;;37.50;20.50;;;-1.50;85.70;;;;;;5037474;28;20557;-81
2020/12/15 08:49:22;;;;;;;34.33;21.02;;;-1.50;85.70;;;;;;5036998;28;20029;-81
2020/12/15 08:51:54;;;;;;;30.60;17.83;;;-1.50;85.40;;;;;;5043515;28;20458;-86
2020/12/15 08:54:20;;;;;;;34.05;20.30;;;-1.40;84.90;;;;;;5042226;28;20467;-81
2020/12/15 08:56:47;;;;;;;42.80;21.45;;;-1.40;86.40;;;;;;5038314;28;20097;-83
2020/12/15 08:59:15;;;;;;;40.13;21.45;;;-1.50;86.70;;;;;;5056242;28;20033;-82
2020/12/15 09:01:41;;;;;;;;;;;-1.60;86.60;;;;;;5052710;28;20036;-82
2020/12/15 09:04:07;;;;;;;37.63;20.10;;;-1.60;86.80;;;;;;5044774;28;19917;-84
2020/12/15 09:06:39;;;;;;;35.67;20.52;;;-1.60;87.60;;;;;;5050281;28;20155;-85
2020/12/15 09:09:06;;;;;;;42.63;23.00;;;-1.60;86.90;;;;;;5046496;28;20021;-82
2020/12/15 09:11:32;;;;;;;41.35;21.25;;;-1.60;86.40;;;;;;5048805;28;20025;-82
2020/12/15 09:14:06;;;;;;;42.57;20.57;;;-1.50;87.10;;;;;;5056525;28;20037;-83
2020/12/15 09:16:34;;;;;;;37.25;19.63;;;-1.60;87.70;;;;;;5075445;28;20143;-86
2020/12/15 09:19:29;;;;;;;38.10;19.42;;;-1.60;88.00;;;;;;5049015;28;20025;-82
2020/12/15 09:21:58;;;;;;;40.40;21.98;;;-1.70;88.20;;;;;;5037971;28;20379;-84
2020/12/15 09:24:24;;;;;;;41.63;22.55;;;-1.70;88.80;;;;;;5065335;28;20032;-84
2020/12/15 09:26:50;;;;;;;39.38;20.58;;;-1.70;89.30;;;;;;5055626;28;20045;-82
2020/12/15 09:29:16;;;;;;;43.50;21.60;;;-1.80;89.40;;;;;;5054725;28;20021;-83
2020/12/15 09:31:44;;;;;;;36.50;21.02;;;-1.80;89.60;;;;;;5049164;28;20048;-85
2020/12/15 09:34:11;;;;;;;42.53;21.33;;;-1.80;89.80;;;;;;5058937;28;20033;-84
2020/12/15 09:36:37;;;;;;;52.47;23.23;;;-1.90;90.10;;;;;;5056339;28;20105;-85
2020/12/15 09:39:04;;;;;;;42.90;22.33;;;-2.00;90.20;;;;;;5051718;28;20441;-84
2020/12/15 09:41:35;;;;;;;41.93;22.13;;;-2.00;90.40;;;;;;5045917;28;20018;-85
2020/12/15 09:44:02;;;;;;;44.90;22.63;;;-2.00;90.40;;;;;;5036593;28;20067;-88
2020/12/15 09:46:28;;;;;;;53.22;25.42;;;-2.00;90.30;;;;;;5046304;28;20441;-82
2020/12/15 09:48:54;;;;;;;43.00;23.50;;;-1.90;89.90;;;;;;5037230;28;20095;-84
2020/12/15 09:51:20;;;;;;;50.42;25.27;;;-1.80;89.80;;;;;;5047784;28;20029;-86
2020/12/15 09:53:46;;;;;;;43.25;24.15;;;-1.80;90.00;;;;;;5034995;28;20029;-85
2020/12/15 09:56:16;;;;;;;40.65;21.70;;;-1.90;90.10;;;;;;5035163;28;20044;-85
2020/12/15 09:58:42;;;;;;;46.28;22.98;;;-2.00;90.20;;;;;;5053294;28;20017;-84
2020/12/15 10:01:08;;;;;;;43.08;21.60;;;-1.90;90.20;;;;;;5055225;28;20369;-84
2020/12/15 10:03:34;;;;;;;42.42;23.65;;;-1.90;90.10;;;;;;5054207;28;20056;-83
2020/12/15 10:05:59;;;;;;;41.40;21.65;;;-1.90;90.00;;;;;;5054224;28;20029;-84
2020/12/15 10:08:25;;;;;;;36.85;21.27;;;-1.80;89.90;;;;;;5054313;28;20044;-83
2020/12/15 10:10:51;;;;;;;51.70;25.02;;;-1.80;89.80;;;;;;5035430;28;20083;-83
2020/12/15 10:13:18;;;;;;;44.55;23.67;;;-1.80;89.20;;;;;;5035627;28;20018;-88
2020/12/15 10:15:44;;;;;;;42.97;22.92;;;-1.70;89.20;;;;;;5036494;28;20033;-84
2020/12/15 10:18:12;;;;;;;49.90;22.70;;;-1.70;89.50;;;;;;5036778;28;20386;-86
2020/12/15 10:20:38;;;;;;;45.70;24.08;;;-1.80;89.80;;;;;;5034018;28;20037;-86
2020/12/15 10:23:04;;;;;;;44.17;24.23;;;-1.80;89.80;;;;;;5035269;28;20108;-87
2020/12/15 10:25:30;;;;;;;45.80;23.17;;;-1.80;89.70;;;;;;5037103;28;20501;-84
2020/12/15 10:27:56;;;;;;;46.30;25.95;;;-1.80;90.00;;;;;;5046147;28;20017;-87
2020/12/15 10:30:22;;;;;;;40.72;22.42;;;-1.80;89.90;;;;;;5040769;28;20026;-85
2020/12/15 10:32:48;;;;;;;45.70;24.08;;;-1.80;89.70;;;;;;5043933;28;20032;-84
2020/12/15 10:35:14;;;;;;;41.60;22.52;;;-1.80;89.70;;;;;;5044336;28;20021;-87
2020/12/15 10:37:40;;;;;;;42.17;22.38;;;-1.70;89.20;;;;;;5042331;28;20033;-82
2020/12/15 10:40:06;;;;;;;46.40;23.33;;;-1.70;89.10;;;;;;5034328;28;20031;-86
2020/12/15 10:42:32;;;;;;;43.75;22.90;;;-1.70;89.20;;;;;;5047198;28;20028;-86
2020/12/15 10:44:57;;;;;;;42.53;23.65;;;-1.70;89.10;;;;;;5039724;28;20037;-86
2020/12/15 10:47:23;;;;;;;47.30;23.42;;;-1.60;88.80;;;;;;5034959;28;20017;-85
2020/12/15 10:49:49;;;;;;;43.47;24.17;;;-1.60;88.30;;;;;;5038900;28;20102;-87
2020/12/15 10:52:15;;;;;;;42.95;22.95;;;-1.60;88.20;;;;;;5035018;28;20040;-87
2020/12/15 10:54:41;;;;;;;41.55;20.92;;;-1.60;87.80;;;;;;5047012;28;20021;-87
2020/12/15 10:57:07;;;;;;;44.10;25.05;;;-1.60;88.20;;;;;;5039798;28;20021;-85
2020/12/15 10:59:33;;;;;;;44.97;22.38;;;-1.50;88.00;;;;;;5050405;28;20028;-86
2020/12/15 11:01:58;;;;;;;47.47;26.10;;;-1.50;88.70;;;;;;5041194;28;20025;-89
2020/12/15 11:04:24;;;;;;;45.10;24.50;;;-1.60;89.10;;;;;;5051345;28;20037;-84
2020/12/15 11:06:50;;;;;;;46.97;25.50;;;-1.60;89.10;;;;;;5037349;28;20093;-87
2020/12/15 11:09:16;;;;;;;51.78;24.70;;;-1.60;88.90;;;;;;5060006;28;20025;-88
2020/12/15 11:11:46;;;;;;;43.72;22.98;;;-1.50;88.30;;;;;;5072035;28;20036;-87
2020/12/15 11:14:13;;;;;;;43.83;25.15;;;-1.50;88.00;;;;;;5063225;28;20022;-86
2020/12/15 11:16:39;;;;;;;48.67;23.92;;;-1.50;87.30;;;;;;5065718;28;20025;-88
2020/12/15 11:19:05;;;;;;;47.65;23.95;;;-1.40;87.00;;;;;;5046240;28;20021;-85
2020/12/15 11:21:31;;;;;;;44.03;25.63;;;-1.40;86.60;;;;;;5049234;28;20017;-89
2020/12/15 11:23:56;;;;;;;48.35;23.13;;;-1.30;85.80;;;;;;5036755;28;20021;-85
2020/12/15 11:26:22;;;;;;;49.53;26.67;;;-1.30;85.50;;;;;;5037636;28;20051;-88
2020/12/15 11:28:48;;;;;;;43.88;23.15;;;-1.30;85.60;;;;;;5049934;28;20115;-87
2020/12/15 11:31:15;;;;;;;44.78;24.92;;;-1.20;85.70;;;;;;5040028;28;20033;-85
2020/12/15 11:33:42;;;;;;;37.47;22.42;;;-1.20;85.70;;;;;;5051845;28;20013;-91
2020/12/15 11:36:09;;;;;;;49.50;24.98;;;-1.20;85.30;;;;;;5048669;28;20032;-84
2020/12/15 11:38:39;;;;;;;47.47;22.95;;;-1.30;84.70;;;;;;5035746;28;20052;-85
2020/12/15 11:41:05;;;;;;;50.72;25.77;;;-1.30;84.20;;;;;;5040478;28;20028;-86
2020/12/15 11:43:31;;;;;;;46.22;25.50;;;-1.30;84.40;;;;;;5044136;28;20387;-86
2020/12/15 11:45:57;;;;;;;45.97;24.35;;;-1.30;84.20;;;;;;5050815;28;20025;-87
2020/12/15 11:48:23;;;;;;;39.45;22.75;;;-1.30;84.20;;;;;;5042192;28;20025;-86
2020/12/15 11:50:49;;;;;;;46.38;24.10;;;-1.30;84.40;;;;;;5053822;28;20366;-86
2020/12/15 11:53:15;;;;;;;39.05;22.35;;;-1.30;85.00;;;;;;5048695;28;20029;-87
2020/12/15 11:55:41;;;;;;;48.10;23.67;;;-1.30;85.50;;;;;;5040237;28;20045;-85
2020/12/15 11:58:06;;;;;;;39.72;22.58;;;-1.30;85.50;;;;;;5050516;28;20471;-84
2020/12/15 12:00:32;;;;;;;44.55;24.23;;;-1.30;85.10;;;;;;5056720;28;20027;-83
2020/12/15 12:02:58;;;;;;;39.78;22.90;;;-1.30;84.60;;;;;;5054434;28;20045;-85
2020/12/15 12:05:24;;;;;;;46.45;23.92;;;-1.30;84.30;;;;;;5056137;28;20028;-84
2020/12/15 12:07:50;;;;;;;50.67;26.38;;;-1.30;84.60;;;;;;5037828;28;20060;-87
2020/12/15 12:10:16;;;;;;;53.70;26.35;;;-1.30;84.70;;;;;;5037810;28;20041;-88
2020/12/15 12:12:42;;;;;;;46.03;24.38;;;-1.30;84.40;;;;;;5034530;28;20024;-82
2020/12/15 12:15:08;;;;;;;45.58;24.98;;;-1.30;84.60;;;;;;5033952;28;20109;-84
2020/12/15 12:17:34;;;;;;;40.10;23.20;;;-1.30;84.00;;;;;;5040722;28;20021;-83
2020/12/15 12:19:59;;;;;;;38.92;22.55;;;-1.30;85.30;;;;;;5044832;28;20025;-86
2020/12/15 12:22:25;;;;;;;51.95;25.92;;;-1.30;85.30;;;;;;5048394;28;20093;-84
2020/12/15 12:24:51;;;;;;;49.55;25.92;;;-1.30;85.10;;;;;;5039763;28;20021;-85
2020/12/15 12:27:17;;;;;;;48.05;24.00;;;-1.30;85.10;;;;;;5037889;28;20045;-81
2020/12/15 12:29:43;;;;;;;58.63;28.48;;;-1.30;84.60;;;;;;5046634;28;20029;-84